createdAt,value
2019-03-28T00:00:41.136Z,990.10
2019-03-28T00:01:41.129Z,990.10
2019-03-28T00:02:41.154Z,990.13
2019-03-28T00:03:41.121Z,990.12
2019-03-28T00:04:41.119Z,990.13
2019-03-28T00:05:41.126Z,990.15
2019-03-28T00:06:41.117Z,990.12
2019-03-28T00:07:41.142Z,990.13
2019-03-28T00:08:41.108Z,990.09
2019-03-28T00:09:41.102Z,990.12
2019-03-28T00:10:41.102Z,990.10
2019-03-28T00:11:41.102Z,990.13
2019-03-28T00:12:41.191Z,990.07
2019-03-28T00:13:41.095Z,990.09
2019-03-28T00:14:41.089Z,990.04
2019-03-28T00:15:41.086Z,990.06
2019-03-28T00:16:41.084Z,990.09
2019-03-28T00:17:41.109Z,990.05
2019-03-28T00:18:41.104Z,989.99
2019-03-28T00:19:41.079Z,990.02
2019-03-28T00:20:41.068Z,989.99
2019-03-28T00:21:41.066Z,989.99
2019-03-28T00:22:41.072Z,990.01
2019-03-28T00:23:41.087Z,990.02
2019-03-28T00:24:41.060Z,990.03
2019-03-28T00:25:41.062Z,989.99
2019-03-28T00:26:41.053Z,989.99
2019-03-28T00:27:41.045Z,990.01
2019-03-28T00:28:41.076Z,989.96
2019-03-28T00:29:41.047Z,989.96
2019-03-28T00:30:41.043Z,989.98
2019-03-28T00:31:41.034Z,989.97
2019-03-28T00:32:41.031Z,989.95
2019-03-28T00:33:41.059Z,989.96
2019-03-28T00:34:41.026Z,989.94
2019-03-28T00:35:41.021Z,989.88
2019-03-28T00:36:41.024Z,989.90
2019-03-28T00:37:41.023Z,989.94
2019-03-28T00:38:41.043Z,989.96
2019-03-28T00:39:41.043Z,989.94
2019-03-28T00:40:41.006Z,989.94
2019-03-28T00:41:41.007Z,989.91
2019-03-28T00:42:41.002Z,989.95
2019-03-28T00:43:41.027Z,989.91
2019-03-28T00:44:41.256Z,989.87
2019-03-28T00:45:40.996Z,989.87
2019-03-28T00:46:40.990Z,989.88
2019-03-28T00:47:40.992Z,989.87
2019-03-28T00:48:41.015Z,989.81
2019-03-28T00:49:41.007Z,989.83
2019-03-28T00:50:40.979Z,989.81
2019-03-28T00:51:43.171Z,989.76
2019-03-28T00:52:41.198Z,989.79
2019-03-28T00:53:40.999Z,989.78
2019-03-28T00:54:40.962Z,989.78
2019-03-28T00:55:40.959Z,989.75
2019-03-28T00:56:46.979Z,989.79
2019-03-28T00:57:40.955Z,989.81
2019-03-28T00:58:40.978Z,989.83
2019-03-28T00:59:40.946Z,989.85
2019-03-28T01:00:40.946Z,989.82
2019-03-28T01:01:40.943Z,989.83
2019-03-28T01:02:40.938Z,989.76
2019-03-28T01:03:40.963Z,989.79
2019-03-28T01:04:40.936Z,989.78
2019-03-28T01:05:40.927Z,989.74
2019-03-28T01:06:40.927Z,989.74
2019-03-28T01:07:40.931Z,989.78
2019-03-28T01:08:40.962Z,989.73
2019-03-28T01:09:40.920Z,989.71
2019-03-28T01:10:40.915Z,989.69
2019-03-28T01:11:40.918Z,989.74
2019-03-28T01:12:40.911Z,989.76
2019-03-28T01:13:40.935Z,989.74
2019-03-28T01:14:40.934Z,989.71
2019-03-28T01:15:40.899Z,989.73
2019-03-28T01:16:40.896Z,989.73
2019-03-28T01:17:40.896Z,989.70
2019-03-28T01:18:40.892Z,989.75
2019-03-28T01:19:40.915Z,989.74
2019-03-28T01:20:40.887Z,989.77
2019-03-28T01:21:41.258Z,989.73
2019-03-28T01:22:40.875Z,989.78
2019-03-28T01:23:40.879Z,989.77
2019-03-28T01:24:40.899Z,989.79
2019-03-28T01:25:40.867Z,989.76
2019-03-28T01:26:40.869Z,989.71
2019-03-28T01:27:40.863Z,989.68
2019-03-28T01:28:41.174Z,989.66
2019-03-28T01:29:40.887Z,989.64
2019-03-28T01:30:40.859Z,989.63
2019-03-28T01:31:40.847Z,989.61
2019-03-28T01:32:40.847Z,989.55
2019-03-28T01:33:40.844Z,989.59
2019-03-28T01:34:40.874Z,989.54
2019-03-28T01:35:40.832Z,989.50
2019-03-28T01:36:40.834Z,989.48
2019-03-28T01:37:40.832Z,989.49
2019-03-28T01:38:40.825Z,989.46
2019-03-28T01:39:40.854Z,989.47
2019-03-28T01:40:40.819Z,989.51
2019-03-28T01:41:41.184Z,989.49
2019-03-28T01:42:40.815Z,989.51
2019-03-28T01:43:40.815Z,989.46
2019-03-28T01:44:40.836Z,989.44
2019-03-28T01:45:40.804Z,989.42
2019-03-28T01:46:40.801Z,989.39
2019-03-28T01:47:40.804Z,989.41
2019-03-28T01:48:40.796Z,989.42
2019-03-28T01:49:40.820Z,989.43
2019-03-28T01:50:41.143Z,989.38
2019-03-28T01:51:40.783Z,989.40
2019-03-28T01:52:40.783Z,989.37
2019-03-28T01:53:40.776Z,989.40
2019-03-28T01:54:40.801Z,989.37
2019-03-28T01:55:40.772Z,989.35
2019-03-28T01:56:40.793Z,989.39
2019-03-28T01:57:40.768Z,989.32
2019-03-28T01:58:40.759Z,989.31
2019-03-28T01:59:40.792Z,989.31
2019-03-28T02:00:40.763Z,989.32
2019-03-28T02:01:40.751Z,989.33
2019-03-28T02:02:40.750Z,989.39
2019-03-28T02:03:40.744Z,989.33
2019-03-28T02:04:40.776Z,989.33
2019-03-28T02:05:40.740Z,989.34
2019-03-28T02:06:40.738Z,989.31
2019-03-28T02:07:40.737Z,989.32
2019-03-28T02:08:41.200Z,989.28
2019-03-28T02:09:40.760Z,989.29
2019-03-28T02:10:40.731Z,989.28
2019-03-28T02:11:40.720Z,989.25
2019-03-28T02:12:40.716Z,989.21
2019-03-28T02:13:40.716Z,989.18
2019-03-28T02:14:40.742Z,989.13
2019-03-28T02:15:40.709Z,989.11
2019-03-28T02:16:40.708Z,989.11
2019-03-28T02:17:40.704Z,989.11
2019-03-28T02:18:40.696Z,989.12
2019-03-28T02:19:40.691Z,989.16
2019-03-28T02:20:40.716Z,989.14
2019-03-28T02:21:40.694Z,989.15
2019-03-28T02:22:40.680Z,989.13
2019-03-28T02:23:40.677Z,989.10
2019-03-28T02:24:40.667Z,989.12
2019-03-28T02:25:40.706Z,989.13
2019-03-28T02:26:40.662Z,989.11
2019-03-28T02:27:40.654Z,989.06
2019-03-28T02:28:41.128Z,989.03
2019-03-28T02:29:40.653Z,989.03
2019-03-28T02:30:40.685Z,989.01
2019-03-28T02:31:40.654Z,988.99
2019-03-28T02:32:40.634Z,988.97
2019-03-28T02:33:40.663Z,988.93
2019-03-28T02:34:40.650Z,988.93
2019-03-28T02:35:40.662Z,988.92
2019-03-28T02:36:40.661Z,988.91
2019-03-28T02:37:40.624Z,988.88
2019-03-28T02:38:40.626Z,988.89
2019-03-28T02:39:40.661Z,988.81
2019-03-28T02:40:40.662Z,988.82
2019-03-28T02:41:40.617Z,988.76
2019-03-28T02:42:40.615Z,988.75
2019-03-28T02:43:40.607Z,988.72
2019-03-28T02:44:40.605Z,988.70
2019-03-28T02:45:40.629Z,988.69
2019-03-28T02:46:40.638Z,988.65
2019-03-28T02:47:40.594Z,988.64
2019-03-28T02:48:40.589Z,988.61
2019-03-28T02:49:40.583Z,988.61
2019-03-28T02:50:40.615Z,988.59
2019-03-28T02:51:40.580Z,988.57
2019-03-28T02:52:40.573Z,988.59
2019-03-28T02:53:40.570Z,988.54
2019-03-28T02:54:40.570Z,988.54
2019-03-28T02:55:40.593Z,988.57
2019-03-28T02:56:41.726Z,988.60
2019-03-28T02:57:42.275Z,988.58
2019-03-28T02:58:40.547Z,988.58
2019-03-28T02:59:40.561Z,988.55
2019-03-28T03:00:40.579Z,988.48
2019-03-28T03:01:40.809Z,988.52
2019-03-28T03:02:40.570Z,988.47
2019-03-28T03:03:40.531Z,988.46
2019-03-28T03:04:40.531Z,988.49
2019-03-28T03:05:40.558Z,988.45
2019-03-28T03:06:40.519Z,988.45
2019-03-28T03:07:41.725Z,988.44
2019-03-28T03:08:40.558Z,988.42
2019-03-28T03:09:40.517Z,988.44
2019-03-28T03:10:40.547Z,988.41
2019-03-28T03:11:42.800Z,988.40
2019-03-28T03:12:40.503Z,988.38
2019-03-28T03:13:40.509Z,988.34
2019-03-28T03:14:40.533Z,988.35
2019-03-28T03:15:40.528Z,988.34
2019-03-28T03:16:40.481Z,988.36
2019-03-28T03:17:41.524Z,988.36
2019-03-28T03:18:40.482Z,988.33
2019-03-28T03:19:40.478Z,988.32
2019-03-28T03:20:40.511Z,988.33
2019-03-28T03:21:40.507Z,988.33
2019-03-28T03:22:40.469Z,988.34
2019-03-28T03:23:40.468Z,988.32
2019-03-28T03:24:40.459Z,988.31
2019-03-28T03:25:40.495Z,988.32
2019-03-28T03:26:40.452Z,988.33
2019-03-28T03:27:56.188Z,988.34
2019-03-28T03:28:40.447Z,988.30
2019-03-28T03:29:40.439Z,988.30
2019-03-28T03:30:40.471Z,988.32
2019-03-28T03:31:40.445Z,988.32
2019-03-28T03:32:40.464Z,988.35
2019-03-28T03:33:40.439Z,988.35
2019-03-28T03:34:40.428Z,988.36
2019-03-28T03:35:40.423Z,988.39
2019-03-28T03:36:40.454Z,988.39
2019-03-28T03:37:40.414Z,988.37
2019-03-28T03:38:40.407Z,988.41
2019-03-28T03:39:40.414Z,988.39
2019-03-28T03:40:40.404Z,988.41
2019-03-28T03:41:40.436Z,988.39
2019-03-28T03:42:40.391Z,988.42
2019-03-28T03:43:40.391Z,988.41
2019-03-28T03:44:41.166Z,988.42
2019-03-28T03:45:40.378Z,988.42
2019-03-28T03:46:40.417Z,988.45
2019-03-28T03:47:40.378Z,988.47
2019-03-28T03:48:40.371Z,988.45
2019-03-28T03:49:40.369Z,988.47
2019-03-28T03:50:40.366Z,988.42
2019-03-28T03:51:40.779Z,988.41
2019-03-28T03:52:40.418Z,988.43
2019-03-28T03:53:40.357Z,988.41
2019-03-28T03:54:40.347Z,988.41
2019-03-28T03:55:40.346Z,988.41
2019-03-28T03:56:40.368Z,988.42
2019-03-28T03:57:40.342Z,988.40
2019-03-28T03:58:40.365Z,988.40
2019-03-28T03:59:40.325Z,988.46
2019-03-28T04:00:40.329Z,988.45
2019-03-28T04:01:40.358Z,988.48
2019-03-28T04:02:40.323Z,988.43
2019-03-28T04:03:40.330Z,988.50
2019-03-28T04:04:40.344Z,988.45
2019-03-28T04:05:40.334Z,988.50
2019-03-28T04:06:40.307Z,988.50
2019-03-28T04:07:40.303Z,988.52
2019-03-28T04:08:40.312Z,988.48
2019-03-28T04:09:40.333Z,988.54
2019-03-28T04:10:40.290Z,988.54
2019-03-28T04:11:40.329Z,988.54
2019-03-28T04:12:40.280Z,988.55
2019-03-28T04:13:40.281Z,988.57
2019-03-28T04:14:40.274Z,988.58
2019-03-28T04:15:40.263Z,988.61
2019-03-28T04:16:40.307Z,988.62
2019-03-28T04:17:40.264Z,988.64
2019-03-28T04:18:40.262Z,988.61
2019-03-28T04:19:40.248Z,988.66
2019-03-28T04:20:40.251Z,988.66
2019-03-28T04:21:40.282Z,988.68
2019-03-28T04:22:40.284Z,988.66
2019-03-28T04:23:40.231Z,988.71
2019-03-28T04:24:40.238Z,988.71
2019-03-28T04:25:40.251Z,988.72
2019-03-28T04:26:40.263Z,988.71
2019-03-28T04:27:40.232Z,988.74
2019-03-28T04:28:40.218Z,988.72
2019-03-28T04:29:40.215Z,988.73
2019-03-28T04:30:40.215Z,988.72
2019-03-28T04:31:40.249Z,988.74
2019-03-28T04:32:40.202Z,988.77
2019-03-28T04:33:40.210Z,988.79
2019-03-28T04:34:40.193Z,988.77
2019-03-28T04:35:40.198Z,988.82
2019-03-28T04:36:40.960Z,988.79
2019-03-28T04:37:40.233Z,988.77
2019-03-28T04:38:40.185Z,988.79
2019-03-28T04:39:40.182Z,988.81
2019-03-28T04:40:40.176Z,988.82
2019-03-28T04:41:40.190Z,988.81
2019-03-28T04:42:40.204Z,988.85
2019-03-28T04:43:40.170Z,988.86
2019-03-28T04:44:40.172Z,988.84
2019-03-28T04:45:40.159Z,988.83
2019-03-28T04:46:40.151Z,988.85
2019-03-28T04:47:40.189Z,988.84
2019-03-28T04:48:40.142Z,988.86
2019-03-28T04:49:40.136Z,988.84
2019-03-28T04:50:40.144Z,988.86
2019-03-28T04:51:40.136Z,988.87
2019-03-28T04:52:40.162Z,988.89
2019-03-28T04:53:40.163Z,988.88
2019-03-28T04:54:40.123Z,988.92
2019-03-28T04:55:40.118Z,988.88
2019-03-28T04:56:40.120Z,988.89
2019-03-28T04:57:41.202Z,988.88
2019-03-28T04:58:44.671Z,988.88
2019-03-28T04:59:40.104Z,988.87
2019-03-28T05:00:40.100Z,988.92
2019-03-28T05:01:40.095Z,988.90
2019-03-28T05:02:40.135Z,988.92
2019-03-28T05:03:40.093Z,988.94
2019-03-28T05:04:40.864Z,988.93
2019-03-28T05:05:40.081Z,988.96
2019-03-28T05:06:40.080Z,988.95
2019-03-28T05:07:40.105Z,989.00
2019-03-28T05:08:40.103Z,988.98
2019-03-28T05:09:40.063Z,988.98
2019-03-28T05:10:40.060Z,988.99
2019-03-28T05:11:40.096Z,989.01
2019-03-28T05:12:40.094Z,989.00
2019-03-28T05:13:40.053Z,988.99
2019-03-28T05:14:40.438Z,989.05
2019-03-28T05:15:40.044Z,989.04
2019-03-28T05:16:40.044Z,989.06
2019-03-28T05:17:40.592Z,989.12
2019-03-28T05:18:40.039Z,989.12
2019-03-28T05:19:40.030Z,989.13
2019-03-28T05:20:40.495Z,989.14
2019-03-28T05:21:40.021Z,989.14
2019-03-28T05:22:40.058Z,989.16
2019-03-28T05:23:40.488Z,989.16
2019-03-28T05:24:40.008Z,989.14
2019-03-28T05:25:40.004Z,989.13
2019-03-28T05:26:40.010Z,989.14
2019-03-28T05:27:39.999Z,989.17
2019-03-28T05:28:40.024Z,989.16
2019-03-28T05:29:40.000Z,989.13
2019-03-28T05:30:39.991Z,989.16
2019-03-28T05:31:39.983Z,989.18
2019-03-28T05:32:39.979Z,989.18
2019-03-28T05:33:39.980Z,989.18
2019-03-28T05:34:40.008Z,989.17
2019-03-28T05:35:39.964Z,989.21
2019-03-28T05:36:39.969Z,989.17
2019-03-28T05:37:39.993Z,989.20
2019-03-28T05:38:39.964Z,989.21
2019-03-28T05:39:39.952Z,989.21
2019-03-28T05:40:39.987Z,989.23
2019-03-28T05:41:39.971Z,989.25
2019-03-28T05:42:39.948Z,989.28
2019-03-28T05:43:39.941Z,989.29
2019-03-28T05:44:39.946Z,989.30
2019-03-28T05:45:39.929Z,989.31
2019-03-28T05:46:39.961Z,989.29
2019-03-28T05:47:39.926Z,989.30
2019-03-28T05:48:39.962Z,989.30
2019-03-28T05:49:39.922Z,989.31
2019-03-28T05:50:39.920Z,989.30
2019-03-28T05:51:39.915Z,989.36
2019-03-28T05:52:39.909Z,989.35
2019-03-28T05:53:39.927Z,989.39
2019-03-28T05:54:39.934Z,989.34
2019-03-28T05:55:39.896Z,989.36
2019-03-28T05:56:39.901Z,989.40
2019-03-28T05:57:39.890Z,989.42
2019-03-28T05:58:39.917Z,989.41
2019-03-28T05:59:39.912Z,989.40
2019-03-28T06:00:40.352Z,989.42
2019-03-28T06:01:39.876Z,989.46
2019-03-28T06:02:39.872Z,989.44
2019-03-28T06:03:39.904Z,989.45
2019-03-28T06:04:39.867Z,989.43
2019-03-28T06:05:39.901Z,989.44
2019-03-28T06:06:39.856Z,989.45
2019-03-28T06:07:39.852Z,989.45
2019-03-28T06:08:39.884Z,989.51
2019-03-28T06:09:40.352Z,989.49
2019-03-28T06:10:39.849Z,989.50
2019-03-28T06:11:39.868Z,989.52
2019-03-28T06:12:39.868Z,989.53
2019-03-28T06:13:39.881Z,989.51
2019-03-28T06:14:39.835Z,989.58
2019-03-28T06:15:41.216Z,989.58
2019-03-28T06:16:39.826Z,989.60
2019-03-28T06:17:39.817Z,989.60
2019-03-28T06:18:39.854Z,989.59
2019-03-28T06:19:39.813Z,989.58
2019-03-28T06:20:39.812Z,989.63
2019-03-28T06:21:39.906Z,989.60
2019-03-28T06:22:39.882Z,989.61
2019-03-28T06:23:39.852Z,989.61
2019-03-28T06:24:39.793Z,989.61
2019-03-28T06:25:41.031Z,989.62
2019-03-28T06:26:39.788Z,989.69
2019-03-28T06:27:39.784Z,989.68
2019-03-28T06:28:39.816Z,989.71
2019-03-28T06:29:39.776Z,989.70
2019-03-28T06:30:39.780Z,989.71
2019-03-28T06:31:39.783Z,989.73
2019-03-28T06:32:43.244Z,989.75
2019-03-28T06:33:39.798Z,989.74
2019-03-28T06:34:39.805Z,989.74
2019-03-28T06:35:39.761Z,989.76
2019-03-28T06:36:40.407Z,989.72
2019-03-28T06:37:39.748Z,989.74
2019-03-28T06:38:39.782Z,989.73
2019-03-28T06:39:39.748Z,989.79
2019-03-28T06:40:39.744Z,989.79
2019-03-28T06:41:39.741Z,989.76
2019-03-28T06:42:39.817Z,989.78
2019-03-28T06:43:41.971Z,989.79
2019-03-28T06:44:39.764Z,989.78
2019-03-28T06:45:39.728Z,989.81
2019-03-28T06:46:39.721Z,989.79
2019-03-28T06:47:39.716Z,989.81
2019-03-28T06:48:39.713Z,989.80
2019-03-28T06:49:39.741Z,989.77
2019-03-28T06:50:39.751Z,989.76
2019-03-28T06:51:39.708Z,989.79
2019-03-28T06:52:39.699Z,989.77
2019-03-28T06:53:39.708Z,989.79
2019-03-28T06:54:39.728Z,989.82
2019-03-28T06:55:39.697Z,989.80
2019-03-28T06:56:39.693Z,989.77
2019-03-28T06:57:39.687Z,989.77
2019-03-28T06:58:39.689Z,989.74
2019-03-28T06:59:39.716Z,989.75
2019-03-28T07:00:39.713Z,989.78
2019-03-28T07:01:39.677Z,989.73
2019-03-28T07:02:39.675Z,989.72
2019-03-28T07:03:39.661Z,989.76
2019-03-28T07:04:39.699Z,989.71
2019-03-28T07:05:39.660Z,989.71
2019-03-28T07:06:40.585Z,989.76
2019-03-28T07:07:39.656Z,989.74
2019-03-28T07:08:39.657Z,989.75
2019-03-28T07:09:39.681Z,989.77
2019-03-28T07:10:39.649Z,989.81
2019-03-28T07:11:39.641Z,989.81
2019-03-28T07:12:39.670Z,989.82
2019-03-28T07:13:39.648Z,989.82
2019-03-28T07:14:39.631Z,989.84
2019-03-28T07:15:39.634Z,989.86
2019-03-28T07:16:39.625Z,989.80
2019-03-28T07:17:39.627Z,989.80
2019-03-28T07:18:39.676Z,989.81
2019-03-28T07:19:39.659Z,989.78
2019-03-28T07:20:39.615Z,989.82
2019-03-28T07:21:39.618Z,989.84
2019-03-28T07:22:39.612Z,989.81
2019-03-28T07:23:39.606Z,989.85
2019-03-28T07:24:39.636Z,989.84
2019-03-28T07:25:39.600Z,989.84
2019-03-28T07:26:39.601Z,989.86
2019-03-28T07:27:39.597Z,989.86
2019-03-28T07:28:39.590Z,989.91
2019-03-28T07:29:50.109Z,989.91
2019-03-28T07:30:39.590Z,989.90
2019-03-28T07:31:40.495Z,989.93
2019-03-28T07:32:40.610Z,989.89
2019-03-28T07:33:39.582Z,989.92
2019-03-28T07:34:39.583Z,989.96
2019-03-28T07:35:39.607Z,989.92
2019-03-28T07:36:39.569Z,989.94
2019-03-28T07:37:39.570Z,989.96
2019-03-28T07:38:39.572Z,989.93
2019-03-28T07:39:39.557Z,989.92
2019-03-28T07:40:39.589Z,989.93
2019-03-28T07:41:39.596Z,989.92
2019-03-28T07:42:39.557Z,989.95
2019-03-28T07:43:39.559Z,989.96
2019-03-28T07:44:39.549Z,989.96
2019-03-28T07:45:39.545Z,990.00
2019-03-28T07:46:39.547Z,990.00
2019-03-28T07:47:39.580Z,990.02
2019-03-28T07:48:39.541Z,990.00
2019-03-28T07:49:39.542Z,989.99
2019-03-28T07:50:42.389Z,990.00
2019-03-28T07:51:39.531Z,989.97
2019-03-28T07:52:39.535Z,989.99
2019-03-28T07:53:39.537Z,989.99
2019-03-28T07:54:39.571Z,989.98
2019-03-28T07:55:39.561Z,989.97
2019-03-28T07:56:39.519Z,989.98
2019-03-28T07:57:39.521Z,989.97
2019-03-28T07:58:39.519Z,989.98
2019-03-28T07:59:39.507Z,989.93
2019-03-28T08:00:39.549Z,989.99
2019-03-28T08:01:39.509Z,989.96
2019-03-28T08:02:39.505Z,989.98
2019-03-28T08:03:40.095Z,990.00
2019-03-28T08:04:39.503Z,990.00
2019-03-28T08:05:39.523Z,989.95
2019-03-28T08:06:49.139Z,989.99
2019-03-28T08:07:45.218Z,989.97
2019-03-28T08:08:40.777Z,990.03
2019-03-28T08:09:39.489Z,990.01
2019-03-28T08:10:39.518Z,990.04
2019-03-28T08:11:39.533Z,990.03
2019-03-28T08:12:39.514Z,990.06
2019-03-28T08:13:39.480Z,990.01
2019-03-28T08:14:39.513Z,990.04
2019-03-28T08:15:39.504Z,990.07
2019-03-28T08:16:39.464Z,990.06
2019-03-28T08:17:39.470Z,990.08
2019-03-28T08:18:39.466Z,990.05
2019-03-28T08:19:41.512Z,990.08
2019-03-28T08:20:39.502Z,990.09
2019-03-28T08:21:39.458Z,990.08
2019-03-28T08:22:39.457Z,990.06
2019-03-28T08:23:39.454Z,990.06
2019-03-28T08:24:39.450Z,990.05
2019-03-28T08:25:39.450Z,990.05
2019-03-28T08:26:39.482Z,990.07
2019-03-28T08:27:39.437Z,990.08
2019-03-28T08:28:39.434Z,990.05
2019-03-28T08:29:39.434Z,990.01
2019-03-28T08:30:39.429Z,990.03
2019-03-28T08:31:40.882Z,990.03
2019-03-28T08:32:40.026Z,990.04
2019-03-28T08:33:39.425Z,990.08
2019-03-28T08:34:39.422Z,990.09
2019-03-28T08:35:39.422Z,990.06
2019-03-28T08:36:39.448Z,990.03
2019-03-28T08:37:39.414Z,990.05
2019-03-28T08:38:39.451Z,990.06
2019-03-28T08:39:39.414Z,990.06
2019-03-28T08:40:40.041Z,990.07
2019-03-28T08:41:39.451Z,990.10
2019-03-28T08:42:39.406Z,990.08
2019-03-28T08:43:39.407Z,990.05
2019-03-28T08:44:39.401Z,990.06
2019-03-28T08:45:39.397Z,990.05
2019-03-28T08:46:39.429Z,990.06
2019-03-28T08:47:39.434Z,990.05
2019-03-28T08:48:39.388Z,990.10
2019-03-28T08:49:39.393Z,990.07
2019-03-28T08:50:39.385Z,990.06
2019-03-28T08:51:39.409Z,990.07
2019-03-28T08:52:39.385Z,990.04
2019-03-28T08:53:39.529Z,990.06
2019-03-28T08:54:39.380Z,990.04
2019-03-28T08:55:39.378Z,990.00
2019-03-28T08:56:39.415Z,989.99
2019-03-28T08:57:39.378Z,990.01
2019-03-28T08:58:39.370Z,990.03
2019-03-28T08:59:39.366Z,990.02
2019-03-28T09:01:39.402Z,989.98
2019-03-28T09:02:39.359Z,989.94
2019-03-28T09:03:39.354Z,989.98
2019-03-28T09:04:39.357Z,989.97
2019-03-28T09:05:39.358Z,989.98
2019-03-28T09:06:39.397Z,989.97
2019-03-28T09:07:39.376Z,989.95
2019-03-28T09:08:39.386Z,989.95
2019-03-28T09:09:39.350Z,989.96
2019-03-28T09:10:39.347Z,989.99
2019-03-28T09:11:39.390Z,990.01
2019-03-28T09:12:39.398Z,990.01
2019-03-28T09:13:39.338Z,989.96
2019-03-28T09:14:39.335Z,989.93
2019-03-28T09:15:44.064Z,989.95
2019-03-28T09:16:39.371Z,989.95
2019-03-28T09:17:39.340Z,990.02
2019-03-28T09:18:39.331Z,990.02
2019-03-28T09:19:39.336Z,990.04
2019-03-28T09:20:39.332Z,990.00
2019-03-28T09:21:39.369Z,989.88
2019-03-28T09:22:39.398Z,989.83
2019-03-28T09:23:39.326Z,989.89
2019-03-28T09:24:39.328Z,989.89
2019-03-28T09:25:39.321Z,989.87
2019-03-28T09:26:39.322Z,989.80
2019-03-28T09:27:39.353Z,989.78
2019-03-28T09:28:39.323Z,989.84
2019-03-28T09:29:39.316Z,989.75
2019-03-28T09:30:48.086Z,989.72
2019-03-28T09:31:39.325Z,989.69
2019-03-28T09:32:39.360Z,989.68
2019-03-28T09:33:40.778Z,989.69
2019-03-28T09:34:39.316Z,989.73
2019-03-28T09:35:39.441Z,989.73
2019-03-28T09:36:39.310Z,989.70
2019-03-28T09:37:39.887Z,989.68
2019-03-28T09:38:39.351Z,989.72
2019-03-28T09:39:40.251Z,989.66
2019-03-28T09:40:39.309Z,989.67
2019-03-28T09:41:39.313Z,989.63
2019-03-28T09:42:39.331Z,989.64
2019-03-28T09:43:54.167Z,989.71
2019-03-28T09:44:39.344Z,989.70
2019-03-28T09:45:39.300Z,989.67
2019-03-28T09:46:39.302Z,989.66
2019-03-28T09:47:39.328Z,989.65
2019-03-28T09:48:39.294Z,989.67
2019-03-28T09:49:39.291Z,989.61
2019-03-28T09:50:39.333Z,989.59
2019-03-28T09:51:39.331Z,989.57
2019-03-28T09:52:39.364Z,989.57
2019-03-28T09:53:39.295Z,989.60
2019-03-28T09:54:39.293Z,989.66
2019-03-28T09:55:39.292Z,989.73
2019-03-28T09:56:39.285Z,989.75
2019-03-28T09:57:39.323Z,989.70
2019-03-28T09:58:39.287Z,989.74
2019-03-28T09:59:39.284Z,989.73
2019-03-28T10:00:39.283Z,989.68
2019-03-28T10:01:39.287Z,989.65
2019-03-28T10:02:39.323Z,989.66
2019-03-28T10:03:39.313Z,989.71
2019-03-28T10:04:39.285Z,989.79
2019-03-28T10:05:39.275Z,989.78
2019-03-28T10:06:39.287Z,989.72
2019-03-28T10:07:39.279Z,989.71
2019-03-28T10:08:39.287Z,989.63
2019-03-28T10:09:39.338Z,989.64
2019-03-28T10:10:39.293Z,989.67
2019-03-28T10:11:39.274Z,989.80
2019-03-28T10:12:39.309Z,989.80
2019-03-28T10:13:39.274Z,989.75
2019-03-28T10:14:39.276Z,989.75
2019-03-28T10:15:39.305Z,989.75
2019-03-28T10:16:40.407Z,989.74
2019-03-28T10:17:42.342Z,989.74
2019-03-28T10:18:39.271Z,989.69
2019-03-28T10:19:39.275Z,989.68
2019-03-28T10:20:39.261Z,989.78
2019-03-28T10:21:39.265Z,989.69
2019-03-28T10:22:39.296Z,989.83
2019-03-28T10:23:39.937Z,989.72
2019-03-28T10:24:39.261Z,989.68
2019-03-28T10:25:39.267Z,989.67
2019-03-28T10:26:39.518Z,989.64
2019-03-28T10:27:39.293Z,989.75
2019-03-28T10:28:39.264Z,989.84
2019-03-28T10:29:39.265Z,989.86
2019-03-28T10:30:39.269Z,989.78
2019-03-28T10:31:39.260Z,989.78
2019-03-28T10:32:39.310Z,989.90
2019-03-28T10:33:39.263Z,989.99
2019-03-28T10:34:39.264Z,989.83
2019-03-28T10:35:39.261Z,989.99
2019-03-28T10:36:39.264Z,990.05
2019-03-28T10:37:39.289Z,990.05
2019-03-28T10:38:39.274Z,990.01
2019-03-28T10:39:39.262Z,989.93
2019-03-28T10:40:39.256Z,989.89
2019-03-28T10:41:39.969Z,989.83
2019-03-28T10:42:39.256Z,989.84
2019-03-28T10:43:39.295Z,989.79
2019-03-28T10:44:39.254Z,989.67
2019-03-28T10:45:39.253Z,989.68
2019-03-28T10:46:39.253Z,989.64
2019-03-28T10:47:39.257Z,989.72
2019-03-28T10:48:39.284Z,989.70
2019-03-28T10:49:39.385Z,989.67
2019-03-28T10:50:43.899Z,989.70
2019-03-28T10:51:39.250Z,989.66
2019-03-28T10:52:39.257Z,989.62
2019-03-28T10:53:39.281Z,989.61
2019-03-28T10:54:39.253Z,989.59
2019-03-28T10:55:39.280Z,989.57
2019-03-28T10:56:51.017Z,989.56
2019-03-28T10:57:39.245Z,989.53
2019-03-28T10:58:39.283Z,989.56
2019-03-28T10:59:39.242Z,989.53
2019-03-28T11:00:39.251Z,989.62
2019-03-28T11:01:49.046Z,989.55
2019-03-28T11:02:39.244Z,989.55
2019-03-28T11:03:39.275Z,989.66
2019-03-28T11:04:39.279Z,989.70
2019-03-28T11:05:39.241Z,989.78
2019-03-28T11:06:39.245Z,989.68
2019-03-28T11:07:39.229Z,989.74
2019-03-28T11:08:39.273Z,989.83
2019-03-28T11:09:39.233Z,990.01
2019-03-28T11:10:39.231Z,989.99
2019-03-28T11:11:39.243Z,989.90
2019-03-28T11:12:39.234Z,989.99
2019-03-28T11:13:39.268Z,990.08
2019-03-28T11:14:39.233Z,990.09
2019-03-28T11:15:39.230Z,990.06
2019-03-28T11:16:39.234Z,990.06
2019-03-28T11:17:39.230Z,989.93
2019-03-28T11:18:39.717Z,990.00
2019-03-28T11:19:39.266Z,990.14
2019-03-28T11:20:40.065Z,990.20
2019-03-28T11:21:39.226Z,990.29
2019-03-28T11:22:39.235Z,990.16
2019-03-28T11:23:39.265Z,990.21
2019-03-28T11:24:39.233Z,990.35
2019-03-28T11:25:39.232Z,990.26
2019-03-28T11:26:39.231Z,990.20
2019-03-28T11:27:39.224Z,990.42
2019-03-28T11:28:39.249Z,990.62
2019-03-28T11:29:39.264Z,990.72
2019-03-28T11:30:39.222Z,990.56
2019-03-28T11:31:46.101Z,990.56
2019-03-28T11:32:39.226Z,990.65
2019-03-28T11:33:39.229Z,990.51
2019-03-28T11:34:39.263Z,990.33
2019-03-28T11:35:39.263Z,990.14
2019-03-28T11:36:39.258Z,990.21
2019-03-28T11:37:39.233Z,990.31
2019-03-28T11:38:39.238Z,990.34
2019-03-28T11:39:39.230Z,990.55
2019-03-28T11:40:42.466Z,990.60
2019-03-28T11:41:39.234Z,990.45
2019-03-28T11:42:39.270Z,990.35
2019-03-28T11:43:39.238Z,990.34
2019-03-28T11:44:39.259Z,990.30
2019-03-28T11:45:39.233Z,990.28
2019-03-28T11:46:39.235Z,990.43
2019-03-28T11:47:39.232Z,990.20
2019-03-28T11:48:39.276Z,990.15
2019-03-28T11:49:39.274Z,990.15
2019-03-28T11:50:39.239Z,990.28
2019-03-28T11:51:39.245Z,990.29
2019-03-28T11:52:42.438Z,990.53
2019-03-28T11:53:39.239Z,990.57
2019-03-28T11:54:39.274Z,990.24
2019-03-28T11:55:39.239Z,990.18
2019-03-28T11:56:39.235Z,990.36
2019-03-28T11:57:39.262Z,990.34
2019-03-28T11:58:39.242Z,990.42
2019-03-28T11:59:39.279Z,990.00
2019-03-28T12:00:39.234Z,990.31
2019-03-28T12:01:39.248Z,990.56
2019-03-28T12:02:39.245Z,990.56
2019-03-28T12:03:39.247Z,990.40
2019-03-28T12:04:39.289Z,990.29
2019-03-28T12:05:39.244Z,990.14
2019-03-28T12:06:39.247Z,990.13
2019-03-28T12:07:39.259Z,990.16
2019-03-28T12:08:39.247Z,990.21
2019-03-28T12:09:39.245Z,990.30
2019-03-28T12:10:39.297Z,990.20
2019-03-28T12:11:39.243Z,990.24
2019-03-28T12:12:39.249Z,989.93
2019-03-28T12:13:45.109Z,989.78
2019-03-28T12:14:39.252Z,990.07
2019-03-28T12:15:39.283Z,990.04
2019-03-28T12:16:39.281Z,989.96
2019-03-28T12:17:39.251Z,989.89
2019-03-28T12:18:39.252Z,989.84
2019-03-28T12:19:39.248Z,989.71
2019-03-28T12:20:39.303Z,989.67
2019-03-28T12:21:39.252Z,989.67
2019-03-28T12:22:39.242Z,989.66
2019-03-28T12:23:39.249Z,989.65
2019-03-28T12:24:39.282Z,989.71
2019-03-28T12:25:39.283Z,989.75
2019-03-28T12:26:39.250Z,989.71
2019-03-28T12:27:39.283Z,989.63
2019-03-28T12:28:39.247Z,989.54
2019-03-28T12:29:39.258Z,989.57